Time;durP1;ratioP1;P1;durP2;ratioP2;P2;SDS_P1;SDS_P2;PMS_P1;PMS_P2;Temp;Humidity;BMP_temperature;BMP_pressure;BME280_temperature;BME280_humidity;BME280_pressure;Samples;Min_cycle;Max_cycle;Signal;HPM_P1;HPM_P2
2022/04/14 00:00:29;;;;;;;21.48;18.33;;;11.70;82.90;;;;;;5051298;28;20053;-66
2022/04/14 00:02:55;;;;;;;25.48;19.05;;;11.60;83.10;;;;;;5052997;28;20124;-67
2022/04/14 00:05:21;;;;;;;23.17;18.75;;;11.60;83.30;;;;;;5050923;28;20052;-66
2022/04/14 00:07:47;;;;;;;28.13;20.30;;;11.60;83.30;;;;;;5052102;28;20040;-65
2022/04/14 00:10:14;;;;;;;28.48;19.08;;;11.60;83.20;;;;;;5051270;28;20147;-66
2022/04/14 00:12:41;;;;;;;23.23;17.58;;;11.60;83.20;;;;;;5052258;28;20056;-66
2022/04/14 00:15:09;;;;;;;22.52;18.98;;;11.60;83.20;;;;;;5051679;28;20049;-67
2022/04/14 00:17:35;;;;;;;27.30;20.63;;;11.60;83.20;;;;;;5052732;28;20409;-67
2022/04/14 00:20:02;;;;;;;28.92;19.60;;;11.60;83.40;;;;;;5051877;28;20041;-66
2022/04/14 00:22:28;;;;;;;22.85;20.45;;;11.60;83.30;;;;;;5051756;28;20056;-67
2022/04/14 00:24:54;;;;;;;21.20;18.95;;;11.60;83.30;;;;;;5052218;28;20052;-66
2022/04/14 00:27:20;;;;;;;23.50;20.73;;;11.50;83.30;;;;;;5051535;28;20045;-66
2022/04/14 00:29:49;;;;;;;28.02;21.05;;;11.50;83.30;;;;;;5051956;28;20128;-67
2022/04/14 00:32:14;;;;;;;31.80;22.42;;;11.40;83.60;;;;;;5051700;28;20055;-66
2022/04/14 00:34:40;;;;;;;27.42;20.98;;;11.30;83.60;;;;;;5051525;28;20152;-66
2022/04/14 00:37:07;;;;;;;28.02;21.88;;;11.30;83.70;;;;;;5050452;28;20045;-66
2022/04/14 00:39:32;;;;;;;29.27;21.98;;;11.20;83.90;;;;;;5051993;28;20045;-67
2022/04/14 00:41:58;;;;;;;25.13;20.90;;;11.20;84.10;;;;;;5051866;28;20075;-66
2022/04/14 00:44:24;;;;;;;27.63;21.83;;;11.10;84.00;;;;;;5051048;28;20041;-67
2022/04/14 00:46:49;;;;;;;27.95;21.80;;;11.10;84.00;;;;;;5051101;28;20045;-67
2022/04/14 00:49:15;;;;;;;26.00;22.10;;;11.10;84.20;;;;;;5051423;28;20149;-66
2022/04/14 00:51:41;;;;;;;28.10;21.58;;;11.00;84.30;;;;;;5046295;28;20037;-67
2022/04/14 00:54:06;;;;;;;29.98;23.27;;;11.00;84.20;;;;;;5051263;28;20039;-67
2022/04/14 00:56:32;;;;;;;26.63;22.25;;;11.00;84.60;;;;;;5050620;28;20037;-66
2022/04/14 00:58:58;;;;;;;25.73;20.45;;;10.90;84.40;;;;;;5050313;28;20094;-67
2022/04/14 01:01:24;;;;;;;25.38;22.40;;;11.00;84.50;;;;;;5050505;28;20068;-67
2022/04/14 01:03:51;;;;;;;28.00;22.27;;;11.00;84.40;;;;;;5049369;28;20057;-67
2022/04/14 01:06:20;;;;;;;24.35;21.65;;;11.00;84.40;;;;;;5050126;28;20076;-67
2022/04/14 01:09:16;;;;;;;24.38;21.50;;;11.00;84.40;;;;;;5049103;28;20047;-66
2022/04/14 01:11:33;;;;;;;27.73;22.85;;;10.90;84.50;;;;;;5050801;28;20065;-66
2022/04/14 01:13:59;;;;;;;26.80;21.45;;;10.90;84.40;;;;;;5050287;28;20076;-67
2022/04/14 01:16:24;;;;;;;27.63;21.92;;;10.90;84.40;;;;;;5050016;28;20083;-67
2022/04/14 01:18:50;;;;;;;28.55;23.00;;;10.80;84.50;;;;;;5050824;28;20041;-67
2022/04/14 01:21:17;;;;;;;27.17;22.27;;;10.90;84.50;;;;;;5051138;28;20048;-67
2022/04/14 01:23:44;;;;;;;26.33;22.45;;;10.80;84.50;;;;;;5050143;28;20080;-67
2022/04/14 01:26:11;;;;;;;29.13;23.67;;;10.80;84.50;;;;;;5049934;28;20090;-67
2022/04/14 01:28:37;;;;;;;33.00;24.20;;;10.80;84.60;;;;;;5050377;28;20072;-67
2022/04/14 01:31:03;;;;;;;29.90;24.25;;;10.80;84.60;;;;;;5050409;28;20071;-66
2022/04/14 01:33:29;;;;;;;31.60;23.42;;;10.70;85.00;;;;;;5051017;28;20048;-66
2022/04/14 01:35:54;;;;;;;30.33;23.67;;;10.70;85.10;;;;;;5050594;28;20500;-67
2022/04/14 01:38:20;;;;;;;28.20;23.67;;;10.60;85.10;;;;;;5050114;28;20622;-66
2022/04/14 01:40:45;;;;;;;29.08;23.92;;;10.60;85.10;;;;;;5051172;28;20091;-67
2022/04/14 01:43:11;;;;;;;27.42;23.08;;;10.60;85.00;;;;;;5049823;28;20458;-67
2022/04/14 01:45:37;;;;;;;25.98;21.63;;;10.60;85.10;;;;;;5050753;28;20037;-67
2022/04/14 01:48:03;;;;;;;31.58;23.75;;;10.50;85.20;;;;;;5050411;28;20340;-67
2022/04/14 01:50:28;;;;;;;26.60;22.92;;;10.50;85.30;;;;;;5050433;28;20041;-66
2022/04/14 01:52:54;;;;;;;27.75;23.77;;;10.40;85.20;;;;;;5049837;28;20123;-67
2022/04/14 01:55:20;;;;;;;27.38;23.10;;;10.40;85.20;;;;;;5050127;28;20041;-67
2022/04/14 01:57:46;;;;;;;28.35;21.35;;;10.50;85.20;;;;;;5050436;28;20060;-66
2022/04/14 02:00:14;;;;;;;31.05;22.63;;;10.40;85.30;;;;;;5050267;28;20048;-67
2022/04/14 02:02:40;;;;;;;31.65;22.83;;;10.50;85.50;;;;;;5049667;28;20533;-67
2022/04/14 02:05:06;;;;;;;31.88;24.08;;;10.40;85.40;;;;;;5049296;28;20084;-67
2022/04/14 02:07:31;;;;;;;32.38;24.25;;;10.40;85.40;;;;;;5049413;28;20045;-67
2022/04/14 02:09:57;;;;;;;28.95;23.30;;;10.50;85.40;;;;;;5049700;28;20455;-66
2022/04/14 02:12:24;;;;;;;26.98;24.17;;;10.40;85.30;;;;;;5049748;28;20529;-66
2022/04/14 02:14:50;;;;;;;31.80;25.67;;;10.50;85.30;;;;;;5049130;28;20079;-67
2022/04/14 02:17:15;;;;;;;29.02;23.58;;;10.50;85.30;;;;;;5047584;28;20129;-66
2022/04/14 02:19:41;;;;;;;36.00;22.40;;;10.50;85.20;;;;;;5049564;28;20041;-66
2022/04/14 02:22:07;;;;;;;30.23;23.90;;;10.50;85.20;;;;;;5050233;28;20040;-66
2022/04/14 02:24:33;;;;;;;27.80;24.42;;;10.50;85.20;;;;;;5049218;28;20135;-66
2022/04/14 02:26:59;;;;;;;28.88;25.05;;;10.50;85.20;;;;;;5048498;28;20126;-66
2022/04/14 02:29:24;;;;;;;26.52;23.38;;;10.30;85.20;;;;;;5047498;28;20064;-67
2022/04/14 02:31:52;;;;;;;28.45;24.05;;;10.30;85.20;;;;;;5049269;28;20076;-67
2022/04/14 02:34:17;;;;;;;29.05;24.10;;;10.30;85.30;;;;;;5048018;28;20402;-66
2022/04/14 02:36:43;;;;;;;29.65;24.95;;;10.30;85.30;;;;;;5048412;28;20045;-67
2022/04/14 02:39:09;;;;;;;35.83;24.50;;;10.30;85.40;;;;;;5047652;28;20045;-66
2022/04/14 02:41:35;;;;;;;30.75;24.25;;;10.20;85.40;;;;;;5048309;28;20037;-67
2022/04/14 02:44:01;;;;;;;34.65;24.50;;;10.20;85.40;;;;;;5037036;28;20041;-67
2022/04/14 02:46:26;;;;;;;32.90;23.33;;;10.20;85.40;;;;;;5046086;28;20039;-67
2022/04/14 02:48:52;;;;;;;32.70;24.95;;;10.20;85.50;;;;;;5047835;28;20056;-66
2022/04/14 02:51:17;;;;;;;27.38;23.55;;;10.20;85.50;;;;;;5048596;28;20085;-66
2022/04/14 02:53:43;;;;;;;29.55;24.25;;;10.30;85.50;;;;;;5048609;28;20037;-67
2022/04/14 02:56:10;;;;;;;33.42;23.38;;;10.20;85.50;;;;;;5048195;28;20041;-67
2022/04/14 02:58:37;;;;;;;39.22;27.27;;;10.20;85.50;;;;;;5048739;28;20453;-66
2022/04/14 03:01:03;;;;;;;31.92;23.75;;;10.10;85.70;;;;;;5048881;28;21148;-66
2022/04/14 03:03:28;;;;;;;28.48;24.10;;;10.10;85.90;;;;;;5048938;28;20076;-66
2022/04/14 03:05:54;;;;;;;29.08;23.38;;;10.00;85.90;;;;;;5048754;28;20041;-67
2022/04/14 03:08:20;;;;;;;28.77;24.08;;;10.10;85.90;;;;;;5048088;28;20041;-67
2022/04/14 03:10:46;;;;;;;30.33;23.58;;;10.10;85.90;;;;;;5047463;28;20060;-67
2022/04/14 03:13:11;;;;;;;34.00;25.42;;;10.10;85.90;;;;;;5048715;28;20067;-67
2022/04/14 03:15:37;;;;;;;28.90;24.33;;;10.00;85.90;;;;;;5048627;28;20048;-67
2022/04/14 03:18:03;;;;;;;33.75;25.95;;;10.10;85.90;;;;;;5048117;28;20128;-67
2022/04/14 03:20:29;;;;;;;34.53;25.60;;;10.10;85.90;;;;;;5048695;28;20540;-67
2022/04/14 03:22:58;;;;;;;33.00;25.98;;;10.10;85.90;;;;;;5047534;28;20040;-67
2022/04/14 03:25:24;;;;;;;28.73;23.90;;;10.10;86.00;;;;;;5038794;28;20057;-66
2022/04/14 03:27:50;;;;;;;32.35;24.90;;;10.10;85.90;;;;;;5049321;28;20359;-66
2022/04/14 03:30:16;;;;;;;33.10;25.90;;;10.10;85.90;;;;;;5050411;28;20424;-67
2022/04/14 03:32:46;;;;;;;34.20;25.83;;;10.10;85.90;;;;;;5050878;28;20398;-67
2022/04/14 03:35:13;;;;;;;33.33;25.25;;;10.10;85.90;;;;;;5050468;28;20049;-67
2022/04/14 03:37:39;;;;;;;35.10;25.77;;;10.00;85.90;;;;;;5050348;28;20048;-67
2022/04/14 03:40:06;;;;;;;31.95;26.08;;;10.00;86.10;;;;;;5051146;28;20100;-67
2022/04/14 03:42:31;;;;;;;32.47;25.38;;;10.00;86.10;;;;;;5050495;28;20442;-67
2022/04/14 03:44:58;;;;;;;39.83;26.27;;;10.10;86.10;;;;;;5049475;28;20826;-66
2022/04/14 03:47:25;;;;;;;32.63;26.27;;;10.00;86.20;;;;;;5050334;28;20516;-67
2022/04/14 03:49:50;;;;;;;35.80;26.95;;;10.10;86.30;;;;;;5050457;28;20056;-67
2022/04/14 03:52:17;;;;;;;34.45;26.23;;;10.10;86.30;;;;;;5049752;28;20045;-67
2022/04/14 03:54:43;;;;;;;35.17;26.50;;;10.00;86.40;;;;;;5049884;28;20072;-67
2022/04/14 03:57:09;;;;;;;32.60;27.05;;;10.10;86.40;;;;;;5050436;28;20485;-67
2022/04/14 03:59:34;;;;;;;32.35;25.75;;;10.10;86.30;;;;;;5049525;28;20037;-67
2022/04/14 04:02:00;;;;;;;28.38;23.92;;;10.10;86.30;;;;;;5050402;28;20044;-67
2022/04/14 04:04:25;;;;;;;23.98;21.48;;;10.10;86.30;;;;;;5050232;28;20104;-67
2022/04/14 04:06:51;;;;;;;23.45;20.05;;;10.10;86.20;;;;;;5048744;28;20099;-67
2022/04/14 04:09:16;;;;;;;18.67;16.73;;;10.00;86.10;;;;;;5049920;28;20525;-67
2022/04/14 04:11:42;;;;;;;21.27;18.20;;;10.00;85.90;;;;;;5050398;28;20075;-67
2022/04/14 04:14:08;;;;;;;21.70;18.92;;;10.00;85.90;;;;;;5049648;28;20048;-67
2022/04/14 04:16:33;;;;;;;26.77;22.23;;;9.90;85.70;;;;;;5049612;28;20041;-67
2022/04/14 04:18:59;;;;;;;31.55;24.55;;;9.90;85.70;;;;;;5048451;28;20568;-68
2022/04/14 04:21:26;;;;;;;35.13;26.48;;;9.90;85.80;;;;;;5050305;28;20448;-66
2022/04/14 04:23:53;;;;;;;38.35;28.35;;;9.90;85.90;;;;;;5049603;28;20051;-66
2022/04/14 04:26:18;;;;;;;35.28;26.83;;;9.90;85.90;;;;;;5049289;28;20055;-67
2022/04/14 04:28:44;;;;;;;38.25;27.00;;;9.90;85.90;;;;;;5049508;28;20120;-66
2022/04/14 04:31:10;;;;;;;38.15;27.98;;;9.90;85.90;;;;;;5048394;28;20041;-66
2022/04/14 04:33:35;;;;;;;35.42;26.83;;;9.90;85.90;;;;;;5048398;28;20044;-66
2022/04/14 04:36:01;;;;;;;36.13;25.80;;;9.90;85.90;;;;;;5047865;28;20052;-66
2022/04/14 04:38:27;;;;;;;36.10;27.83;;;9.90;85.90;;;;;;5049431;28;20598;-67
2022/04/14 04:40:52;;;;;;;41.88;28.30;;;9.90;86.00;;;;;;5048983;28;20123;-66
2022/04/14 04:43:18;;;;;;;36.95;27.63;;;9.90;86.00;;;;;;5049096;28;20045;-66
2022/04/14 04:45:44;;;;;;;37.47;27.80;;;9.80;86.00;;;;;;5048623;28;20045;-66
2022/04/14 04:48:10;;;;;;;38.47;27.38;;;9.80;86.10;;;;;;5048946;28;20045;-66
2022/04/14 04:50:36;;;;;;;36.72;26.67;;;9.80;86.10;;;;;;5049130;28;20051;-66
2022/04/14 04:53:01;;;;;;;34.85;26.10;;;9.70;86.30;;;;;;5048841;28;20044;-65
2022/04/14 04:55:27;;;;;;;37.42;25.38;;;9.70;86.30;;;;;;5049832;28;20322;-67
2022/04/14 04:57:52;;;;;;;41.83;27.25;;;9.60;86.30;;;;;;5049178;28;20053;-67
2022/04/14 05:00:18;;;;;;;35.65;27.90;;;9.60;86.40;;;;;;5048582;28;20437;-67
2022/04/14 05:02:45;;;;;;;38.60;27.80;;;9.50;86.60;;;;;;5049157;28;20124;-66
2022/04/14 05:05:10;;;;;;;38.40;28.48;;;9.50;86.70;;;;;;5048966;28;20132;-66
2022/04/14 05:07:36;;;;;;;37.10;27.13;;;9.50;86.80;;;;;;5049327;28;20512;-66
2022/04/14 05:10:02;;;;;;;37.78;28.73;;;9.50;86.80;;;;;;5048661;28;20140;-66
2022/04/14 05:12:28;;;;;;;40.33;28.25;;;9.60;86.80;;;;;;5047921;28;20056;-66
2022/04/14 05:14:54;;;;;;;39.45;28.55;;;9.60;86.90;;;;;;5048616;28;20612;-67
2022/04/14 05:17:19;;;;;;;38.35;27.52;;;9.60;86.90;;;;;;5048637;28;20064;-66
2022/04/14 05:19:45;;;;;;;35.15;26.95;;;9.70;86.90;;;;;;5048066;28;20076;-67
2022/04/14 05:22:11;;;;;;;39.00;28.05;;;9.60;86.90;;;;;;5048954;28;20052;-69
2022/04/14 05:24:36;;;;;;;40.33;28.33;;;9.60;87.10;;;;;;5049224;28;20037;-67
2022/04/14 05:27:02;;;;;;;40.67;29.17;;;9.70;87.20;;;;;;5048426;28;20049;-68
2022/04/14 05:29:28;;;;;;;38.72;29.00;;;9.70;87.10;;;;;;5048595;28;20501;-67
2022/04/14 05:31:54;;;;;;;41.03;28.20;;;9.70;87.20;;;;;;5048136;28;20104;-67
2022/04/14 05:34:19;;;;;;;43.00;30.02;;;9.70;87.30;;;;;;5048439;28;20037;-67
2022/04/14 05:36:45;;;;;;;40.05;28.50;;;9.70;87.20;;;;;;5048558;28;20067;-68
2022/04/14 05:39:10;;;;;;;36.28;27.95;;;9.70;87.30;;;;;;5048371;28;20052;-68
2022/04/14 05:41:36;;;;;;;37.85;26.67;;;9.80;87.20;;;;;;5048403;28;20397;-66
2022/04/14 05:44:02;;;;;;;40.15;29.38;;;9.80;87.20;;;;;;5048132;28;20037;-67
2022/04/14 05:46:27;;;;;;;39.85;28.10;;;9.90;87.30;;;;;;5048471;28;20041;-68
2022/04/14 05:48:53;;;;;;;38.30;27.65;;;9.90;87.50;;;;;;5049583;28;20049;-68
2022/04/14 05:51:20;;;;;;;45.58;29.65;;;10.00;87.30;;;;;;5048495;28;20053;-67
2022/04/14 05:53:49;;;;;;;37.38;27.80;;;10.00;87.30;;;;;;5031072;28;20060;-68
2022/04/14 05:56:16;;;;;;;43.75;28.33;;;10.10;87.40;;;;;;5049218;28;20049;-68
2022/04/14 05:58:42;;;;;;;43.42;28.85;;;10.10;87.30;;;;;;5049311;28;20045;-68
2022/04/14 06:01:08;;;;;;;38.40;28.08;;;10.30;88.00;;;;;;5049540;28;20079;-68
2022/04/14 06:03:33;;;;;;;38.97;28.95;;;10.20;87.60;;;;;;5049529;28;20040;-67
2022/04/14 06:05:59;;;;;;;40.97;28.42;;;10.20;87.40;;;;;;5049133;28;20037;-66
2022/04/14 06:08:25;;;;;;;36.95;28.60;;;10.20;87.30;;;;;;5047651;28;20561;-66
2022/04/14 06:10:51;;;;;;;43.47;29.08;;;10.10;87.30;;;;;;5047334;28;20052;-66
2022/04/14 06:13:16;;;;;;;41.05;28.83;;;10.10;87.30;;;;;;5048734;28;20230;-66
2022/04/14 06:15:43;;;;;;;41.90;28.92;;;10.10;87.40;;;;;;5048441;28;20041;-68
2022/04/14 06:18:08;;;;;;;46.08;30.50;;;10.10;87.40;;;;;;5047858;28;20386;-66
2022/04/14 06:20:34;;;;;;;34.10;26.00;;;10.20;87.50;;;;;;5044865;28;20048;-66
2022/04/14 06:23:00;;;;;;;42.05;28.80;;;10.60;88.50;;;;;;5047268;28;20045;-66
2022/04/14 06:25:26;;;;;;;35.28;27.13;;;10.80;87.80;;;;;;5047349;28;20607;-66
2022/04/14 06:27:52;;;;;;;35.53;28.17;;;10.90;87.20;;;;;;5048094;28;20055;-66
2022/04/14 06:30:19;;;;;;;41.05;28.15;;;10.90;86.80;;;;;;5048901;28;20040;-66
2022/04/14 06:33:15;;;;;;;38.83;28.50;;;10.80;86.70;;;;;;5048886;28;20060;-66
2022/04/14 06:35:41;;;;;;;39.50;25.52;;;10.90;86.80;;;;;;5052169;28;20064;-66
2022/04/14 06:38:07;;;;;;;37.22;26.10;;;10.80;87.30;;;;;;5047524;28;20041;-67
2022/04/14 06:40:32;;;;;;;38.55;26.45;;;10.70;87.70;;;;;;5048403;28;20056;-67
2022/04/14 06:42:59;;;;;;;41.53;26.35;;;10.70;87.70;;;;;;5049141;28;20623;-67
2022/04/14 06:45:25;;;;;;;35.15;25.88;;;10.80;87.70;;;;;;5049045;28;20445;-66
2022/04/14 06:47:50;;;;;;;40.05;27.35;;;10.80;87.80;;;;;;5047814;28;20049;-67
2022/04/14 06:50:16;;;;;;;36.35;24.52;;;10.80;87.70;;;;;;5047656;28;20567;-67
2022/04/14 06:52:41;;;;;;;31.25;24.05;;;10.90;87.90;;;;;;5041124;28;20041;-66
2022/04/14 06:55:08;;;;;;;35.40;25.65;;;10.90;87.90;;;;;;5047753;28;20045;-66
2022/04/14 06:57:34;;;;;;;34.58;24.92;;;11.00;87.70;;;;;;5047727;28;20063;-66
2022/04/14 06:59:59;;;;;;;35.10;25.13;;;11.10;87.90;;;;;;5045587;28;20084;-68
2022/04/14 07:02:25;;;;;;;35.13;25.00;;;11.10;87.90;;;;;;5045440;28;20591;-67
2022/04/14 07:04:51;;;;;;;38.88;23.83;;;11.10;87.90;;;;;;5048480;28;20044;-66
2022/04/14 07:07:16;;;;;;;34.33;23.50;;;11.20;87.80;;;;;;5051743;28;20126;-66
2022/04/14 07:09:42;;;;;;;34.92;23.80;;;11.20;87.80;;;;;;5051402;28;20037;-66
2022/04/14 07:12:08;;;;;;;28.48;23.33;;;11.30;88.00;;;;;;5051506;28;20429;-65
2022/04/14 07:14:34;;;;;;;29.75;22.15;;;11.30;87.90;;;;;;5051605;28;20064;-66
2022/04/14 07:17:00;;;;;;;28.17;22.08;;;11.40;87.90;;;;;;5046972;28;20045;-67
2022/04/14 07:19:26;;;;;;;31.33;21.67;;;11.50;87.80;;;;;;5052266;28;20398;-67
2022/04/14 07:21:53;;;;;;;27.02;21.55;;;11.60;87.80;;;;;;5052468;28;20037;-66
2022/04/14 07:24:18;;;;;;;33.92;22.13;;;11.60;87.70;;;;;;5048366;28;20041;-66
2022/04/14 07:26:44;;;;;;;27.27;21.73;;;11.70;88.00;;;;;;5051928;28;20048;-67
2022/04/14 07:29:10;;;;;;;34.63;21.70;;;11.70;87.90;;;;;;5056346;28;20037;-66
2022/04/14 07:31:37;;;;;;;30.95;23.27;;;11.70;87.60;;;;;;5046967;28;20301;-66
2022/04/14 07:34:04;;;;;;;29.48;21.95;;;11.90;87.70;;;;;;5050639;28;20047;-67
2022/04/14 07:36:30;;;;;;;30.42;22.10;;;12.00;87.30;;;;;;5052157;28;20460;-67
2022/04/14 07:38:55;;;;;;;31.70;23.73;;;12.10;87.10;;;;;;5050855;28;20447;-66
2022/04/14 07:41:21;;;;;;;33.00;24.17;;;12.10;86.90;;;;;;5051724;28;20037;-66
2022/04/14 07:43:46;;;;;;;26.85;22.92;;;12.10;86.80;;;;;;5052269;28;20151;-67
2022/04/14 07:46:12;;;;;;;28.70;23.92;;;12.10;86.80;;;;;;5052043;28;20135;-67
2022/04/14 07:48:38;;;;;;;34.17;23.65;;;12.20;86.80;;;;;;5051972;28;20037;-67
2022/04/14 07:51:04;;;;;;;33.00;23.60;;;12.30;86.60;;;;;;5051515;28;20049;-66
2022/04/14 07:53:30;;;;;;;29.90;22.70;;;12.40;86.80;;;;;;5051405;28;20112;-66
2022/04/14 07:55:56;;;;;;;29.98;22.88;;;12.40;86.50;;;;;;5052339;28;20045;-66
2022/04/14 07:58:22;;;;;;;27.05;22.35;;;12.40;86.40;;;;;;5051433;28;20414;-66
2022/04/14 08:00:50;;;;;;;29.73;23.13;;;12.50;86.20;;;;;;5051016;28;20051;-65
2022/04/14 08:03:16;;;;;;;37.15;21.77;;;12.60;85.80;;;;;;5050662;28;20386;-66
2022/04/14 08:05:43;;;;;;;29.23;21.85;;;12.60;85.80;;;;;;5052108;28;20056;-66
2022/04/14 08:08:17;;;;;;;21.98;19.55;;;12.60;85.50;;;;;;5051717;28;20053;-66
2022/04/14 08:10:46;;;;;;;25.27;19.88;;;12.70;85.40;;;;;;5050895;28;20541;-66
2022/04/14 08:13:14;;;;;;;29.98;21.20;;;12.70;85.20;;;;;;5051350;28;20058;-66
2022/04/14 08:15:39;;;;;;;25.52;21.05;;;12.80;85.00;;;;;;5051457;28;20052;-65
2022/04/14 08:18:06;;;;;;;25.13;19.48;;;12.90;84.90;;;;;;5051080;28;20041;-65
2022/04/14 08:20:34;;;;;;;30.75;18.95;;;12.90;84.40;;;;;;5051180;28;20055;-66
2022/04/14 08:23:01;;;;;;;25.17;19.00;;;13.00;84.60;;;;;;5051517;28;20056;-64
2022/04/14 08:25:29;;;;;;;23.77;18.65;;;13.00;84.00;;;;;;5050320;28;20037;-64
2022/04/14 08:27:57;;;;;;;21.98;18.38;;;13.10;84.00;;;;;;5050872;28;20532;-65
2022/04/14 08:30:24;;;;;;;22.65;17.20;;;13.20;83.90;;;;;;5050480;28;20060;-66
2022/04/14 08:32:51;;;;;;;28.27;17.90;;;13.30;83.50;;;;;;5050292;28;20186;-66
2022/04/14 08:35:17;;;;;;;22.70;15.95;;;13.40;83.30;;;;;;5050929;28;20073;-66
2022/04/14 08:37:43;;;;;;;23.48;17.98;;;13.40;82.60;;;;;;5050869;28;20576;-66
2022/04/14 08:40:15;;;;;;;20.63;17.05;;;13.50;82.00;;;;;;5050693;28;20045;-66
2022/04/14 08:42:43;;;;;;;21.92;14.90;;;13.50;82.30;;;;;;5051179;28;20091;-66
2022/04/14 08:45:13;;;;;;;18.70;14.70;;;13.60;81.80;;;;;;5050290;28;20059;-66
2022/04/14 08:47:40;;;;;;;18.45;14.48;;;13.60;81.10;;;;;;5051282;28;20453;-66
2022/04/14 08:50:10;;;;;;;22.65;14.68;;;13.80;81.10;;;;;;5050498;28;20132;-66
2022/04/14 08:52:37;;;;;;;21.17;15.38;;;13.80;80.60;;;;;;5050962;28;20107;-65
2022/04/14 08:55:05;;;;;;;19.17;13.45;;;13.90;80.70;;;;;;5050289;28;20064;-65
2022/04/14 08:57:32;;;;;;;15.43;12.93;;;14.00;79.90;;;;;;5050411;28;20497;-65
2022/04/14 08:59:59;;;;;;;25.95;15.25;;;14.00;79.70;;;;;;5050249;28;20080;-65
2022/04/14 09:02:26;;;;;;;21.98;15.18;;;14.10;79.60;;;;;;5050883;28;20044;-67
2022/04/14 09:04:52;;;;;;;12.82;11.48;;;14.20;80.20;;;;;;5050383;28;20135;-66
2022/04/14 09:07:18;;;;;;;16.20;12.35;;;14.20;79.80;;;;;;5050976;28;20037;-66
2022/04/14 09:09:44;;;;;;;16.67;12.23;;;14.30;79.10;;;;;;5049737;28;20045;-67
2022/04/14 09:12:11;;;;;;;18.63;10.93;;;14.30;78.10;;;;;;5049641;28;20131;-68
2022/04/14 09:14:37;;;;;;;16.70;12.32;;;14.30;77.60;;;;;;5049507;28;20064;-66
2022/04/14 09:17:04;;;;;;;17.80;11.88;;;14.30;76.40;;;;;;5050155;28;20033;-67
2022/04/14 09:19:31;;;;;;;18.90;10.70;;;14.40;77.60;;;;;;5048996;28;20079;-67
2022/04/14 09:22:07;;;;;;;14.63;10.20;;;14.50;77.30;;;;;;5050267;28;20041;-66
2022/04/14 09:24:43;;;;;;;15.77;10.32;;;14.60;77.30;;;;;;5049633;28;20045;-65
2022/04/14 09:27:22;;;;;;;15.30;9.77;;;14.60;76.20;;;;;;5049753;28;20095;-67
2022/04/14 09:29:49;;;;;;;12.80;9.68;;;14.70;76.10;;;;;;5050027;28;20132;-66
2022/04/14 09:32:35;;;;;;;12.70;8.70;;;14.80;75.50;;;;;;5050120;28;20055;-66
2022/04/14 09:35:19;;;;;;;14.88;11.43;;;14.80;74.80;;;;;;5048798;28;20417;-68
2022/04/14 09:37:45;;;;;;;13.50;9.93;;;14.70;74.50;;;;;;5049590;28;20037;-65
2022/04/14 09:40:13;;;;;;;13.57;8.50;;;14.80;75.20;;;;;;5049840;28;20864;-65
2022/04/14 09:42:43;;;;;;;14.65;7.38;;;14.80;74.20;;;;;;5050081;28;20071;-66
2022/04/14 09:45:25;;;;;;;16.55;8.38;;;14.80;73.80;;;;;;5048562;28;20041;-66
2022/04/14 09:47:53;;;;;;;15.02;8.98;;;14.90;73.60;;;;;;5049487;28;20052;-66
2022/04/14 09:50:39;;;;;;;14.38;6.50;;;14.80;73.30;;;;;;5049012;28;20041;-67
2022/04/14 09:53:12;;;;;;;10.38;6.53;;;14.90;72.90;;;;;;5049248;28;20049;-67
2022/04/14 09:55:40;;;;;;;9.00;5.20;;;15.00;74.20;;;;;;5049303;28;20044;-66
2022/04/14 09:58:13;;;;;;;7.95;5.15;;;15.00;72.60;;;;;;5049673;28;20051;-66
2022/04/14 10:00:47;;;;;;;8.70;5.72;;;15.10;71.10;;;;;;5049246;28;20136;-66
2022/04/14 10:03:21;;;;;;;6.68;4.13;;;15.00;72.50;;;;;;5048374;28;20082;-66
2022/04/14 10:05:51;;;;;;;8.40;4.53;;;15.10;71.90;;;;;;5048676;28;20040;-66
2022/04/14 10:08:18;;;;;;;8.13;4.60;;;15.10;71.00;;;;;;5049542;28;20045;-66
2022/04/14 10:10:46;;;;;;;8.40;5.28;;;15.10;70.90;;;;;;5048980;28;20100;-66
2022/04/14 10:13:16;;;;;;;9.85;5.30;;;15.10;71.40;;;;;;5048936;28;20049;-66
2022/04/14 10:15:46;;;;;;;10.70;6.35;;;15.10;72.10;;;;;;5048650;28;20037;-66
2022/04/14 10:18:17;;;;;;;11.73;6.45;;;15.10;71.80;;;;;;5049275;28;20041;-66
2022/04/14 10:20:47;;;;;;;9.15;3.45;;;15.10;71.10;;;;;;5049411;28;20049;-66
2022/04/14 10:23:15;;;;;;;6.82;4.53;;;15.10;69.40;;;;;;5048650;28;20045;-66
2022/04/14 10:25:42;;;;;;;12.70;6.90;;;15.10;69.20;;;;;;5048418;28;20235;-65
2022/04/14 10:28:16;;;;;;;14.13;7.10;;;15.10;70.60;;;;;;5047236;28;20340;-65
2022/04/14 10:30:52;;;;;;;14.98;7.28;;;15.10;70.80;;;;;;5038743;28;20056;-65
2022/04/14 10:33:19;;;;;;;14.60;8.43;;;15.00;71.00;;;;;;5048356;28;20058;-65
2022/04/14 10:35:45;;;;;;;15.63;7.75;;;15.10;71.60;;;;;;5048186;28;20037;-65
2022/04/14 10:38:24;;;;;;;10.50;5.88;;;15.10;72.40;;;;;;5048309;28;20055;-65
2022/04/14 10:40:58;;;;;;;11.82;7.18;;;15.20;71.70;;;;;;5034326;28;20041;-65
2022/04/14 10:43:25;;;;;;;12.27;6.82;;;15.20;71.20;;;;;;5047815;28;20047;-65
2022/04/14 10:45:58;;;;;;;11.18;7.55;;;15.10;70.70;;;;;;5048276;28;20045;-65
2022/04/14 10:48:29;;;;;;;15.43;5.97;;;15.20;71.90;;;;;;5048021;28;20077;-64
2022/04/14 10:51:13;;;;;;;10.93;6.68;;;15.10;70.90;;;;;;5046984;28;20091;-65
2022/04/14 10:54:09;;;;;;;12.95;6.05;;;15.10;71.00;;;;;;5047403;28;20128;-65
2022/04/14 10:56:34;;;;;;;12.13;5.97;;;15.10;70.70;;;;;;5040360;28;20510;-65
2022/04/14 10:59:11;;;;;;;15.25;6.97;;;15.10;70.20;;;;;;5046184;28;20033;-65
2022/04/14 11:01:50;;;;;;;10.95;6.25;;;15.10;70.80;;;;;;5046631;28;20051;-65
2022/04/14 11:04:24;;;;;;;10.60;6.78;;;15.20;71.60;;;;;;5047872;28;20045;-65
2022/04/14 11:07:01;;;;;;;9.68;7.20;;;15.20;71.70;;;;;;5048267;28;20060;-64
2022/04/14 11:09:46;;;;;;;15.43;7.03;;;15.30;71.20;;;;;;5046487;28;20052;-65
2022/04/14 11:12:19;;;;;;;8.93;4.10;;;15.30;71.80;;;;;;5048094;28;20546;-64
2022/04/14 11:15:03;;;;;;;7.97;4.72;;;15.30;70.70;;;;;;5047929;28;20533;-64
2022/04/14 11:17:38;;;;;;;9.05;4.88;;;15.30;68.50;;;;;;5046963;28;20374;-65
2022/04/14 11:20:36;;;;;;;10.20;4.70;;;15.40;69.30;;;;;;5047513;28;20083;-64
2022/04/14 11:23:08;;;;;;;11.02;5.72;;;15.30;69.50;;;;;;5047592;28;20049;-64
2022/04/14 11:25:49;;;;;;;12.20;5.47;;;15.40;70.30;;;;;;5048582;28;20087;-65
2022/04/14 11:28:35;;;;;;;8.63;4.95;;;15.50;70.10;;;;;;5047647;28;20044;-65
2022/04/14 11:31:05;;;;;;;8.57;5.32;;;15.50;70.60;;;;;;5047240;28;20037;-65
2022/04/14 11:33:30;;;;;;;6.47;4.25;;;15.60;70.50;;;;;;5047979;28;20040;-65
2022/04/14 11:36:10;;;;;;;8.57;5.05;;;15.60;70.20;;;;;;5047806;28;20044;-65
2022/04/14 11:38:55;;;;;;;9.48;4.78;;;15.60;69.50;;;;;;5047842;28;20045;-65
2022/04/14 11:41:53;;;;;;;10.07;4.15;;;15.70;69.90;;;;;;5047119;28;20053;-63
2022/04/14 11:44:32;;;;;;;8.90;4.00;;;15.70;68.30;;;;;;5047563;28;20055;-64
2022/04/14 11:47:01;;;;;;;7.22;4.25;;;15.60;68.80;;;;;;5047623;28;20486;-64
2022/04/14 11:49:29;;;;;;;8.43;3.67;;;15.50;68.50;;;;;;5049371;28;20375;-65
2022/04/14 11:51:56;;;;;;;8.35;3.55;;;15.40;69.10;;;;;;5050519;28;20040;-64
2022/04/14 11:54:34;;;;;;;7.82;4.03;;;15.40;69.40;;;;;;5051641;28;20124;-64
2022/04/14 11:57:09;;;;;;;14.02;4.78;;;15.50;69.20;;;;;;5051449;28;20044;-65
2022/04/14 11:59:36;;;;;;;8.80;3.92;;;15.50;69.40;;;;;;5050865;28;20053;-64
2022/04/14 12:02:09;;;;;;;6.93;3.17;;;15.30;69.40;;;;;;5050681;28;20541;-64
2022/04/14 12:04:35;;;;;;;7.32;3.40;;;15.40;68.80;;;;;;5051341;28;20041;-64
2022/04/14 12:07:01;;;;;;;8.60;3.58;;;15.30;68.70;;;;;;5050827;28;20087;-64
2022/04/14 12:09:27;;;;;;;7.35;3.15;;;15.30;69.40;;;;;;5050762;28;20044;-64
2022/04/14 12:11:52;;;;;;;13.85;3.90;;;15.40;69.00;;;;;;5050117;28;20056;-64
2022/04/14 12:14:19;;;;;;;5.60;3.70;;;15.50;69.00;;;;;;5049364;28;20045;-64
2022/04/14 12:16:50;;;;;;;7.45;3.80;;;15.60;69.50;;;;;;5049677;28;20048;-65
2022/04/14 12:19:16;;;;;;;10.65;4.10;;;15.60;68.90;;;;;;5049322;28;20057;-63
2022/04/14 12:21:41;;;;;;;8.43;4.47;;;15.80;68.80;;;;;;5046071;28;20135;-62
2022/04/14 12:24:07;;;;;;;9.68;4.05;;;15.80;68.10;;;;;;5043898;28;20033;-63
2022/04/14 12:26:36;;;;;;;9.27;3.58;;;15.80;68.70;;;;;;5041426;28;20037;-63
2022/04/14 12:29:02;;;;;;;6.63;3.53;;;15.80;67.50;;;;;;5043849;28;20041;-63
2022/04/14 12:31:30;;;;;;;10.25;4.45;;;15.80;67.70;;;;;;5042580;28;20052;-61
2022/04/14 12:34:00;;;;;;;10.75;3.55;;;15.80;68.40;;;;;;5042520;28;20041;-62